createdAt,value
2022-08-12T06:06:17.590Z,99.90
2022-08-12T06:08:48.515Z,99.90
2022-08-12T06:11:19.030Z,99.90
2022-08-12T06:13:53.728Z,99.90
2022-08-12T06:16:22.927Z,99.90
2022-08-12T06:18:50.088Z,99.90
2022-08-12T06:21:21.287Z,99.90
2022-08-12T06:23:48.222Z,99.90
2022-08-12T06:26:16.616Z,99.90
2022-08-12T06:28:43.715Z,99.00
2022-08-12T06:31:25.846Z,99.10
2022-08-12T06:34:01.061Z,99.40
2022-08-12T06:36:41.770Z,98.90
2022-08-12T06:39:15.070Z,98.10
2022-08-12T06:42:27.753Z,97.60
2022-08-12T06:44:50.261Z,97.90
2022-08-12T06:47:19.602Z,96.90
2022-08-12T06:49:46.569Z,97.80
2022-08-12T06:52:13.147Z,97.10
2022-08-12T06:54:44.166Z,97.10
2022-08-12T06:58:05.464Z,97.10
2022-08-12T06:59:57.373Z,96.30
2022-08-12T07:02:25.739Z,96.60
2022-08-12T07:04:52.647Z,96.00
2022-08-12T07:07:19.259Z,96.30
2022-08-12T07:10:01.263Z,95.60
2022-08-12T07:12:32.367Z,95.30
2022-08-12T07:15:01.493Z,95.20
2022-08-12T07:17:37.267Z,94.70
2022-08-12T07:20:11.663Z,94.80
2022-08-12T07:22:57.365Z,94.70
2022-08-12T07:25:40.424Z,94.90
2022-08-12T07:28:23.297Z,94.00
2022-08-12T07:30:52.586Z,94.20
2022-08-12T07:33:22.492Z,94.30
2022-08-12T07:35:50.552Z,95.00
2022-08-12T07:38:31.273Z,94.40
2022-08-12T07:41:14.557Z,94.50
2022-08-12T07:43:51.455Z,94.10
2022-08-12T07:46:22.505Z,93.90
2022-08-12T07:48:54.259Z,93.70
2022-08-12T07:51:25.144Z,94.30
2022-08-12T07:54:00.434Z,93.50
2022-08-12T07:56:30.975Z,94.20
2022-08-12T07:59:00.968Z,93.50
2022-08-12T08:01:28.062Z,94.50
2022-08-12T08:04:18.520Z,93.20
2022-08-12T08:06:46.033Z,93.30
2022-08-12T08:09:15.075Z,92.10
2022-08-12T08:12:00.278Z,92.60
2022-08-12T08:14:29.098Z,92.20
2022-08-12T08:16:58.078Z,92.30
2022-08-12T08:19:26.830Z,91.80
2022-08-12T08:21:54.862Z,91.40
2022-08-12T08:24:24.532Z,91.40
2022-08-12T08:26:53.350Z,91.60
2022-08-12T08:29:21.747Z,90.60
2022-08-12T08:31:59.942Z,91.00
2022-08-12T08:34:33.579Z,91.30
2022-08-12T08:37:17.318Z,90.50
2022-08-12T08:39:44.245Z,90.10
2022-08-12T08:42:29.434Z,90.30
2022-08-12T08:44:58.619Z,90.20
2022-08-12T08:47:25.797Z,88.90
2022-08-12T08:49:52.382Z,87.90
2022-08-12T08:52:39.585Z,88.30
2022-08-12T08:55:09.455Z,88.10
2022-08-12T08:57:43.945Z,88.00
2022-08-12T09:00:16.718Z,87.60
2022-08-12T09:02:49.355Z,88.00
2022-08-12T09:05:25.899Z,86.70
2022-08-12T09:10:40.711Z,86.60
2022-08-12T09:14:10.735Z,86.70
2022-08-12T09:16:21.153Z,86.60
2022-08-12T09:18:52.216Z,86.50
2022-08-12T09:21:20.175Z,83.80
2022-08-12T09:23:59.026Z,86.30
2022-08-12T09:26:29.315Z,85.40
2022-08-12T09:28:57.295Z,85.80
2022-08-12T09:32:07.711Z,85.70
2022-08-12T09:34:27.729Z,86.00
2022-08-12T09:37:01.418Z,85.00
2022-08-12T09:40:03.106Z,83.40
2022-08-12T09:42:44.007Z,83.20
2022-08-12T09:45:23.174Z,83.50
2022-08-12T09:50:27.179Z,80.90
2022-08-12T09:53:15.094Z,80.90
2022-08-12T09:56:06.065Z,82.30
2022-08-12T09:58:58.169Z,80.80
2022-08-12T10:01:24.344Z,80.30
2022-08-12T10:04:03.161Z,79.40
2022-08-12T10:06:32.246Z,79.30
2022-08-12T10:09:06.834Z,80.50
2022-08-12T10:12:11.126Z,80.90
2022-08-12T10:14:40.656Z,77.10
2022-08-12T10:17:22.941Z,77.20
2022-08-12T10:19:52.893Z,78.90
2022-08-12T10:22:39.905Z,76.50
2022-08-12T10:26:34.687Z,77.40
2022-08-12T10:28:38.306Z,77.40
2022-08-12T10:31:06.084Z,77.50
2022-08-12T10:33:34.447Z,77.20
2022-08-12T10:36:21.259Z,75.60
2022-08-12T10:39:03.560Z,76.30
2022-08-12T10:42:08.860Z,77.50
2022-08-12T10:44:37.144Z,77.10
2022-08-12T10:47:26.540Z,75.30
2022-08-12T10:50:02.659Z,74.60
2022-08-12T10:52:38.908Z,76.30
2022-08-12T10:55:13.189Z,75.10
2022-08-12T10:58:14.317Z,74.20
2022-08-12T11:00:31.207Z,74.70
2022-08-12T11:04:34.344Z,74.50
2022-08-12T11:07:06.336Z,74.00
2022-08-12T11:08:43.494Z,72.80
2022-08-12T11:11:17.621Z,74.30
2022-08-12T11:13:49.088Z,73.20
2022-08-12T11:16:23.220Z,71.50
2022-08-12T11:18:54.975Z,72.50
2022-08-12T11:21:22.665Z,73.20
2022-08-12T11:24:25.655Z,71.40
2022-08-12T11:29:26.030Z,72.80
2022-08-12T11:32:01.759Z,71.90
2022-08-12T11:34:53.265Z,73.10
2022-08-12T11:37:24.830Z,70.50
2022-08-12T11:42:39.596Z,69.40
2022-08-12T11:45:11.071Z,70.20
2022-08-12T11:47:40.241Z,68.90
2022-08-12T11:50:07.841Z,67.00
2022-08-12T11:52:55.269Z,69.00
2022-08-12T11:55:23.066Z,67.30
2022-08-12T11:58:40.522Z,69.30
2022-08-12T12:03:45.674Z,67.70
2022-08-12T12:06:16.954Z,68.10
2022-08-12T12:08:49.757Z,68.00
2022-08-12T12:11:17.972Z,67.70
2022-08-12T12:14:08.432Z,69.50
2022-08-12T12:16:31.322Z,67.40
2022-08-12T12:19:00.357Z,66.90
2022-08-12T12:21:46.691Z,66.60
2022-08-12T12:24:13.626Z,67.70
2022-08-12T12:26:48.606Z,67.00
2022-08-12T12:30:17.614Z,67.10
2022-08-12T12:32:18.496Z,67.60
2022-08-12T12:35:17.878Z,67.30
2022-08-12T12:38:03.719Z,67.30
2022-08-12T12:40:19.096Z,67.20
2022-08-12T12:42:54.405Z,63.90
2022-08-12T12:45:26.070Z,66.40
2022-08-12T12:48:00.367Z,66.80
2022-08-12T12:50:45.611Z,67.30
2022-08-12T12:54:05.194Z,67.90
2022-08-12T12:56:15.215Z,67.90
2022-08-12T12:58:44.870Z,69.10
2022-08-12T13:01:26.674Z,70.10
2022-08-12T13:04:02.613Z,70.50
2022-08-12T13:06:31.725Z,68.20
2022-08-12T13:09:02.887Z,68.80
2022-08-12T13:11:41.635Z,66.00
2022-08-12T13:14:27.962Z,66.80
2022-08-12T13:16:55.207Z,67.50
2022-08-12T13:19:25.425Z,68.40
2022-08-12T13:22:18.445Z,69.70
2022-08-12T13:24:54.831Z,68.20
2022-08-12T13:27:28.266Z,68.30
2022-08-12T13:30:03.668Z,69.20
2022-08-12T13:32:41.517Z,69.30
2022-08-12T13:35:19.909Z,66.50
2022-08-12T13:37:57.587Z,67.30
2022-08-12T13:40:27.344Z,66.30
2022-08-12T13:42:58.027Z,66.70
2022-08-12T13:45:27.105Z,64.50
2022-08-12T13:47:56.944Z,65.50
2022-08-12T13:50:26.665Z,66.00
2022-08-12T13:52:53.349Z,67.60
2022-08-12T13:55:25.411Z,67.60
2022-08-12T13:58:01.718Z,65.60
2022-08-12T14:00:38.060Z,66.40
2022-08-12T14:03:06.144Z,63.90
2022-08-12T14:05:38.948Z,64.00
2022-08-12T14:08:07.828Z,64.40
2022-08-12T14:10:37.576Z,65.20
2022-08-12T14:14:02.623Z,66.10
2022-08-12T14:16:02.184Z,66.70
2022-08-12T14:18:32.821Z,67.90
2022-08-12T14:21:01.693Z,68.90
2022-08-12T14:24:08.063Z,68.30
2022-08-12T14:26:21.528Z,68.40
2022-08-12T14:29:01.748Z,69.20
2022-08-12T14:31:31.742Z,68.10
2022-08-12T14:33:59.577Z,68.10
2022-08-12T14:36:26.716Z,66.40
2022-08-12T14:38:54.935Z,65.50
2022-08-12T14:41:25.313Z,64.60
2022-08-12T14:44:13.008Z,64.60
2022-08-12T14:46:55.693Z,64.90
2022-08-12T14:50:00.784Z,65.90
2022-08-12T14:53:04.582Z,65.60
2022-08-12T14:57:57.255Z,63.60
2022-08-12T15:00:52.197Z,64.90
2022-08-12T15:03:23.190Z,63.00
2022-08-12T15:06:05.776Z,62.90
2022-08-12T15:08:43.538Z,63.50
2022-08-12T15:11:16.277Z,66.10
2022-08-12T15:13:49.387Z,67.00
2022-08-12T15:16:18.797Z,65.20
2022-08-12T15:18:50.729Z,65.30
2022-08-12T15:21:24.294Z,65.50
2022-08-12T15:23:55.432Z,65.80
2022-08-12T15:26:28.606Z,64.80
2022-08-12T15:28:56.523Z,65.40
2022-08-12T15:31:28.288Z,65.60
2022-08-12T15:34:10.945Z,65.20
2022-08-12T15:36:55.345Z,64.90
2022-08-12T15:39:22.488Z,64.30
2022-08-12T15:41:50.877Z,63.60
2022-08-12T15:44:38.842Z,64.10
2022-08-12T15:47:10.567Z,64.10
2022-08-12T15:49:54.181Z,65.00
2022-08-12T15:52:27.495Z,64.40
2022-08-12T15:54:58.380Z,63.90
2022-08-12T15:57:26.697Z,63.70
2022-08-12T16:00:06.798Z,64.60
2022-08-12T16:02:43.902Z,63.10
2022-08-12T16:06:12.068Z,62.90
2022-08-12T16:08:17.180Z,64.80
2022-08-12T16:10:46.707Z,65.10
2022-08-12T16:13:18.169Z,65.90
2022-08-12T16:16:02.313Z,65.60
2022-08-12T16:18:31.470Z,66.60
2022-08-12T16:20:58.253Z,65.20
2022-08-12T16:26:14.670Z,90.60
2022-08-12T16:28:47.585Z,66.40
2022-08-12T16:31:22.812Z,63.80
2022-08-12T16:33:59.158Z,65.10
2022-08-12T16:36:30.990Z,65.10
2022-08-12T16:39:01.651Z,65.30
2022-08-12T16:41:39.761Z,66.50
2022-08-12T16:44:08.164Z,64.70
2022-08-12T16:46:36.165Z,65.50
2022-08-12T16:49:08.953Z,66.00
2022-08-12T16:51:41.886Z,66.60
2022-08-12T16:54:16.169Z,81.60
2022-08-12T16:56:54.770Z,68.20
2022-08-12T16:59:25.877Z,68.20
2022-08-12T17:01:57.550Z,68.50
2022-08-12T17:04:25.269Z,68.60
2022-08-12T17:06:52.519Z,68.80
2022-08-12T17:09:19.421Z,69.00
2022-08-12T17:11:49.158Z,69.10
2022-08-12T17:14:16.972Z,69.10
2022-08-12T17:16:45.575Z,68.60
2022-08-12T17:19:13.851Z,69.30
2022-08-12T17:22:01.846Z,68.80
2022-08-12T17:24:32.255Z,69.10
2022-08-12T17:27:00.754Z,69.10
2022-08-12T17:30:00.623Z,69.50
2022-08-12T17:32:16.129Z,70.00
2022-08-12T17:35:08.805Z,70.00
2022-08-12T17:37:37.231Z,70.60
2022-08-12T17:40:15.141Z,71.20
2022-08-12T17:42:43.725Z,71.60
2022-08-12T17:45:19.485Z,72.60
2022-08-12T17:48:01.904Z,72.20
2022-08-12T17:50:36.706Z,71.80
2022-08-12T17:53:05.406Z,72.50
2022-08-12T17:55:43.836Z,72.50
2022-08-12T17:58:13.800Z,74.00
2022-08-12T18:00:44.266Z,72.10
2022-08-12T18:03:57.480Z,71.60
2022-08-12T18:06:08.555Z,71.40
2022-08-12T18:08:43.225Z,71.10
2022-08-12T18:12:04.505Z,71.90
2022-08-12T18:14:27.966Z,72.20
2022-08-12T18:16:57.468Z,72.60
2022-08-12T18:19:27.728Z,71.60
2022-08-12T18:22:14.514Z,70.80
2022-08-12T18:24:41.938Z,72.80
2022-08-12T18:27:28.088Z,73.80
2022-08-12T18:29:55.816Z,71.40
2022-08-12T18:32:34.665Z,72.10
2022-08-12T18:35:11.236Z,73.90
2022-08-12T18:37:42.393Z,71.50
2022-08-12T18:40:28.700Z,71.00
2022-08-12T18:42:59.194Z,71.80
2022-08-12T18:45:31.584Z,73.90
2022-08-12T18:48:16.537Z,73.80
2022-08-12T18:50:49.938Z,75.70
2022-08-12T18:54:06.210Z,73.60
2022-08-12T18:56:06.601Z,73.40
2022-08-12T18:58:59.990Z,72.70
2022-08-12T19:02:19.335Z,72.80
2022-08-12T19:04:15.660Z,75.30
2022-08-12T19:06:46.679Z,76.10
2022-08-12T19:09:14.731Z,76.30
2022-08-12T19:12:01.002Z,77.30
2022-08-12T19:14:28.125Z,78.60
2022-08-12T19:16:57.768Z,78.80
2022-08-12T19:19:24.906Z,78.90
2022-08-12T19:21:56.671Z,79.00
2022-08-12T19:24:42.384Z,78.30
2022-08-12T19:27:11.577Z,81.00
2022-08-12T19:29:44.417Z,77.50
2022-08-12T19:32:31.503Z,78.20
2022-08-12T19:38:06.681Z,77.20
2022-08-12T19:40:37.348Z,77.10
2022-08-12T19:43:13.287Z,77.80
2022-08-12T19:45:49.649Z,77.90
2022-08-12T19:48:18.505Z,78.30
2022-08-12T19:50:49.886Z,78.40
2022-08-12T19:53:18.827Z,79.00
2022-08-12T19:55:50.860Z,79.20
2022-08-12T19:58:19.686Z,80.40
2022-08-12T20:00:53.179Z,80.00
2022-08-12T20:03:38.717Z,81.20
2022-08-12T20:06:16.294Z,81.10
2022-08-12T20:08:56.779Z,81.20
2022-08-12T20:12:14.315Z,81.60
2022-08-12T20:14:19.036Z,83.50
2022-08-12T20:16:51.708Z,82.90
2022-08-12T20:19:20.726Z,83.40
2022-08-12T20:21:47.344Z,84.10
2022-08-12T20:24:14.438Z,85.10
2022-08-12T20:26:42.523Z,85.50
2022-08-12T20:29:11.457Z,86.40
2022-08-12T20:31:39.628Z,86.90
2022-08-12T20:34:06.822Z,87.00
2022-08-12T20:42:04.014Z,99.90
2022-08-12T20:44:37.754Z,89.70
2022-08-12T20:47:19.976Z,89.90
2022-08-12T20:49:54.958Z,90.00
2022-08-12T20:52:24.418Z,90.40
2022-08-12T20:54:51.199Z,90.30
2022-08-12T20:57:19.386Z,90.30
2022-08-12T20:59:49.631Z,90.30
2022-08-12T21:02:18.374Z,90.10
2022-08-12T21:05:16.263Z,89.80
2022-08-12T21:07:47.809Z,89.80
2022-08-12T21:10:20.938Z,89.60
2022-08-12T21:12:48.410Z,90.40
2022-08-12T21:15:24.073Z,89.60
2022-08-12T21:18:11.842Z,90.10
2022-08-12T21:20:52.331Z,90.30
2022-08-12T21:23:21.476Z,90.30
2022-08-12T21:25:49.211Z,90.60
2022-08-12T21:28:20.328Z,90.90
2022-08-12T21:31:11.549Z,90.70
2022-08-12T21:34:06.338Z,90.40
2022-08-12T21:36:34.322Z,90.00
2022-08-12T21:39:19.141Z,90.10
2022-08-12T21:41:51.135Z,90.00
2022-08-12T21:44:24.289Z,89.70
2022-08-12T21:47:19.551Z,90.40
2022-08-12T21:49:55.657Z,90.00
2022-08-12T21:52:34.162Z,90.60
2022-08-12T21:55:02.821Z,90.80
2022-08-12T21:57:36.045Z,91.50
2022-08-12T22:00:17.499Z,91.80
2022-08-12T22:03:02.825Z,91.90
2022-08-12T22:05:49.230Z,92.50
2022-08-12T22:08:16.224Z,93.00
2022-08-12T22:10:51.076Z,93.40
2022-08-12T22:14:07.299Z,93.10
2022-08-12T22:16:06.611Z,93.00
2022-08-12T22:18:33.226Z,93.30
2022-08-12T22:20:59.960Z,93.40
2022-08-12T22:23:28.295Z,93.50
2022-08-12T22:26:15.944Z,93.70
2022-08-12T22:29:14.437Z,93.90
2022-08-12T22:31:43.890Z,94.00
2022-08-12T22:34:18.319Z,93.40
2022-08-12T22:36:45.547Z,93.30
2022-08-12T22:39:15.709Z,92.40
2022-08-12T22:42:01.352Z,92.10
2022-08-12T22:44:54.973Z,92.20
2022-08-12T22:47:45.887Z,92.50
2022-08-12T22:50:27.792Z,92.30
2022-08-12T22:53:14.910Z,91.90
2022-08-12T22:56:00.593Z,91.90
2022-08-12T22:58:32.139Z,92.00
2022-08-12T23:01:02.525Z,92.10
2022-08-12T23:03:48.004Z,92.50
2022-08-12T23:06:23.592Z,92.30
2022-08-12T23:08:51.478Z,92.50
2022-08-12T23:11:23.709Z,92.40
2022-08-12T23:13:56.250Z,92.50
2022-08-12T23:16:30.936Z,92.80
2022-08-12T23:19:10.704Z,93.10
2022-08-12T23:22:05.065Z,93.00
2022-08-12T23:24:53.834Z,93.20
2022-08-12T23:27:50.936Z,93.20
2022-08-12T23:30:31.040Z,93.60
2022-08-12T23:33:00.705Z,94.40
2022-08-12T23:35:53.872Z,94.40
2022-08-12T23:38:30.745Z,94.70
2022-08-12T23:41:01.603Z,95.30
2022-08-12T23:43:40.152Z,95.10
2022-08-12T23:46:09.018Z,95.20
2022-08-12T23:48:37.404Z,95.50
2022-08-12T23:51:21.441Z,95.50
2022-08-12T23:53:50.521Z,95.90
2022-08-12T23:56:17.730Z,96.60
2022-08-12T23:58:52.453Z,96.40
